createdAt,value
2023-01-19T00:01:11.783Z,1.35
2023-01-19T00:03:48.292Z,1.36
2023-01-19T00:06:40.020Z,1.38
2023-01-19T00:13:02.481Z,1.39
2023-01-19T00:15:51.825Z,1.40
2023-01-19T00:18:44.842Z,1.42
2023-01-19T00:21:21.355Z,1.42
2023-01-19T00:23:55.866Z,1.42
2023-01-19T00:26:29.085Z,1.42
2023-01-19T00:29:27.194Z,1.42
2023-01-19T00:32:31.735Z,1.43
2023-01-19T00:35:43.442Z,1.43
2023-01-19T00:38:49.957Z,1.44
2023-01-19T00:42:18.118Z,1.45
2023-01-19T00:45:20.491Z,1.46
2023-01-19T00:48:28.627Z,1.46
2023-01-19T00:51:22.690Z,1.46
2023-01-19T00:54:37.797Z,1.46
2023-01-19T00:57:26.871Z,1.45
2023-01-19T01:00:28.284Z,1.44
2023-01-19T01:03:08.898Z,1.44
2023-01-19T01:06:07.619Z,1.43
2023-01-19T01:08:47.572Z,1.40
2023-01-19T01:11:40.064Z,1.37
2023-01-19T01:14:51.418Z,1.35
2023-01-19T01:17:57.335Z,1.32
2023-01-19T01:21:13.268Z,1.28
2023-01-19T01:27:11.968Z,1.24
2023-01-19T01:30:12.186Z,1.21
2023-01-19T01:33:07.331Z,1.17
2023-01-19T01:36:12.056Z,1.14
2023-01-19T01:39:03.056Z,1.10
2023-01-19T01:41:46.184Z,1.07
2023-01-19T01:44:54.826Z,1.05
2023-01-19T01:48:01.242Z,1.02
2023-01-19T01:51:18.581Z,1.00
2023-01-19T01:57:17.688Z,0.98
2023-01-19T02:00:26.239Z,0.96
2023-01-19T02:03:19.220Z,0.97
2023-01-19T02:06:23.084Z,0.99
2023-01-19T02:09:32.397Z,1.00
2023-01-19T02:12:22.000Z,0.98
2023-01-19T02:15:24.219Z,1.00
2023-01-19T02:18:22.177Z,1.00
2023-01-19T02:21:27.344Z,1.00
2023-01-19T02:24:22.576Z,0.95
2023-01-19T02:27:23.425Z,0.92
2023-01-19T02:30:18.801Z,0.89
2023-01-19T02:33:14.097Z,0.89
2023-01-19T02:36:17.086Z,0.89
2023-01-19T02:38:49.268Z,0.89
2023-01-19T02:41:48.662Z,0.88
2023-01-19T02:44:23.864Z,0.89
2023-01-19T02:47:15.984Z,0.91
2023-01-19T02:50:36.357Z,0.90
2023-01-19T02:53:23.611Z,0.89
2023-01-19T02:56:31.776Z,0.88
2023-01-19T02:59:36.529Z,0.84
2023-01-19T03:02:38.076Z,0.83
2023-01-19T03:05:23.771Z,0.82
2023-01-19T03:08:29.489Z,0.82
2023-01-19T03:11:24.896Z,0.82
2023-01-19T03:14:20.392Z,0.82
2023-01-19T03:17:10.557Z,0.82
2023-01-19T03:19:59.806Z,0.80
2023-01-19T03:22:59.201Z,0.78
2023-01-19T03:26:00.263Z,0.77
2023-01-19T03:28:40.268Z,0.76
2023-01-19T03:31:35.738Z,0.76
2023-01-19T03:34:40.131Z,0.76
2023-01-19T03:37:34.651Z,0.76
2023-01-19T03:40:08.951Z,0.77
2023-01-19T03:43:10.325Z,0.78
2023-01-19T03:46:02.268Z,0.79
2023-01-19T03:48:37.487Z,0.80
2023-01-19T03:51:09.582Z,0.81
2023-01-19T03:54:01.115Z,0.81
2023-01-19T03:56:54.149Z,0.80
2023-01-19T03:59:48.853Z,0.80
2023-01-19T04:02:46.516Z,0.81
2023-01-19T04:06:00.558Z,0.78
2023-01-19T04:08:52.693Z,0.79
2023-01-19T04:11:44.023Z,0.78
2023-01-19T04:14:35.625Z,0.77
2023-01-19T04:17:27.868Z,0.77
2023-01-19T04:20:24.525Z,0.76
2023-01-19T04:23:19.577Z,0.76
2023-01-19T04:25:52.218Z,0.76
2023-01-19T04:28:46.277Z,0.76
2023-01-19T04:31:39.752Z,0.76
2023-01-19T04:34:29.018Z,0.74
2023-01-19T04:37:21.343Z,0.72
2023-01-19T04:40:13.522Z,0.71
2023-01-19T04:43:07.355Z,0.70
2023-01-19T04:45:37.804Z,0.70
2023-01-19T04:48:30.228Z,0.68
2023-01-19T04:51:20.610Z,0.69
2023-01-19T04:53:52.476Z,0.68
2023-01-19T04:56:44.197Z,0.67
2023-01-19T04:59:14.788Z,0.69
2023-01-19T05:01:46.553Z,0.71
2023-01-19T05:04:18.541Z,0.71
2023-01-19T05:07:10.271Z,0.71
2023-01-19T05:10:03.119Z,0.72
2023-01-19T05:13:01.427Z,0.72
2023-01-19T05:15:33.296Z,0.73
2023-01-19T05:18:28.238Z,0.74
2023-01-19T05:21:17.327Z,0.74
2023-01-19T05:24:12.101Z,0.73
2023-01-19T05:27:06.557Z,0.71
2023-01-19T05:29:43.432Z,0.70
2023-01-19T05:32:33.830Z,0.69
2023-01-19T05:35:39.841Z,0.69
2023-01-19T05:38:36.158Z,0.69
2023-01-19T05:41:07.050Z,0.70
2023-01-19T05:43:56.756Z,0.70
2023-01-19T05:47:00.134Z,0.71
2023-01-19T05:49:57.740Z,0.69
2023-01-19T05:52:50.269Z,0.68
2023-01-19T05:55:42.007Z,0.66
2023-01-19T05:58:36.971Z,0.65
2023-01-19T06:01:26.844Z,0.65
2023-01-19T06:04:23.293Z,0.65
2023-01-19T06:06:59.616Z,0.66
2023-01-19T06:09:50.077Z,0.67
2023-01-19T06:12:43.081Z,0.66
2023-01-19T06:15:37.201Z,0.68
2023-01-19T06:18:34.912Z,0.68
2023-01-19T06:21:26.383Z,0.68
2023-01-19T06:24:17.443Z,0.67
2023-01-19T06:27:09.110Z,0.65
2023-01-19T06:30:11.007Z,0.65
2023-01-19T06:32:40.217Z,0.64
2023-01-19T06:35:08.948Z,0.64
2023-01-19T06:37:36.621Z,0.65
2023-01-19T06:40:06.202Z,0.65
2023-01-19T06:42:33.983Z,0.64
2023-01-19T06:45:01.579Z,0.65
2023-01-19T06:47:29.121Z,0.64
2023-01-19T06:49:56.831Z,0.63
2023-01-19T06:52:24.421Z,0.62
2023-01-19T06:54:51.939Z,0.60
2023-01-19T06:57:19.450Z,0.58
2023-01-19T06:59:48.108Z,0.58
2023-01-19T07:02:27.292Z,0.57
2023-01-19T07:04:55.991Z,0.56
2023-01-19T07:07:23.570Z,0.57
2023-01-19T07:09:53.744Z,0.57
2023-01-19T07:12:21.926Z,0.58
2023-01-19T07:14:49.659Z,0.58
2023-01-19T07:17:18.019Z,0.58
2023-01-19T07:19:45.905Z,0.58
2023-01-19T07:22:13.505Z,0.58
2023-01-19T07:24:41.077Z,0.59
2023-01-19T07:27:10.817Z,0.58
2023-01-19T07:29:38.770Z,0.59
2023-01-19T07:32:06.864Z,0.60
2023-01-19T07:34:35.898Z,0.59
2023-01-19T07:37:03.931Z,0.59
2023-01-19T07:39:31.524Z,0.59
2023-01-19T07:41:59.140Z,0.60
2023-01-19T07:44:26.951Z,0.56
2023-01-19T07:46:54.454Z,0.54
2023-01-19T07:49:22.805Z,0.53
2023-01-19T07:51:51.410Z,0.49
2023-01-19T07:54:20.403Z,0.45
2023-01-19T07:56:50.540Z,0.40
2023-01-19T07:59:18.059Z,0.36
2023-01-19T08:01:52.784Z,0.31
2023-01-19T08:04:24.206Z,0.23
2023-01-19T08:06:56.281Z,0.16
2023-01-19T08:09:24.619Z,0.10
2023-01-19T08:11:52.674Z,0.06
2023-01-19T08:14:20.830Z,0.02
2023-01-19T08:16:48.527Z,-0.02
2023-01-19T08:19:18.823Z,-0.04
2023-01-19T08:21:47.468Z,-0.06
2023-01-19T08:24:22.829Z,-0.08
2023-01-19T08:27:16.464Z,-0.09
2023-01-19T08:29:47.264Z,-0.10
2023-01-19T08:32:16.537Z,-0.11
2023-01-19T08:34:46.500Z,-0.10
2023-01-19T08:37:16.680Z,-0.11
2023-01-19T08:39:46.919Z,-0.13
2023-01-19T08:42:16.258Z,-0.13
2023-01-19T08:44:57.603Z,-0.12
2023-01-19T08:47:29.650Z,-0.11
2023-01-19T08:50:04.907Z,-0.11
2023-01-19T08:52:33.300Z,-0.10
2023-01-19T08:55:10.686Z,-0.06
2023-01-19T08:57:40.493Z,-0.02
2023-01-19T09:00:25.308Z,0.01
2023-01-19T09:03:03.729Z,0.05
2023-01-19T09:05:34.969Z,0.09
2023-01-19T09:08:09.864Z,0.13
2023-01-19T09:10:41.150Z,0.15
2023-01-19T09:13:15.936Z,0.19
2023-01-19T09:15:48.574Z,0.21
2023-01-19T09:18:22.327Z,0.23
2023-01-19T09:20:59.257Z,0.24
2023-01-19T09:23:28.656Z,0.26
2023-01-19T09:25:59.037Z,0.29
2023-01-19T09:28:30.126Z,0.33
2023-01-19T09:31:08.999Z,0.36
2023-01-19T09:33:55.893Z,0.42
2023-01-19T09:36:25.716Z,0.45
2023-01-19T09:38:54.271Z,0.49
2023-01-19T09:41:25.295Z,0.54
2023-01-19T09:43:57.719Z,0.57
2023-01-19T09:46:35.797Z,0.56
2023-01-19T09:49:11.506Z,0.54
2023-01-19T09:51:41.499Z,0.57
2023-01-19T09:54:15.077Z,0.61
2023-01-19T09:56:43.295Z,0.64
2023-01-19T09:59:30.005Z,0.67
2023-01-19T10:02:15.306Z,0.68
2023-01-19T10:04:54.657Z,0.70
2023-01-19T10:07:36.072Z,0.76
2023-01-19T10:10:17.276Z,0.82
2023-01-19T10:13:03.096Z,0.86
2023-01-19T10:15:43.753Z,0.90
2023-01-19T10:18:17.715Z,0.93
2023-01-19T10:20:50.260Z,0.96
2023-01-19T10:23:30.702Z,0.96
2023-01-19T10:26:02.621Z,0.97
2023-01-19T10:28:31.092Z,1.01
2023-01-19T10:31:00.248Z,1.06
2023-01-19T10:33:35.277Z,1.09
2023-01-19T10:36:07.196Z,1.12
2023-01-19T10:38:36.603Z,1.12
2023-01-19T10:41:11.219Z,1.14
2023-01-19T10:43:45.769Z,1.17
2023-01-19T10:46:22.878Z,1.19
2023-01-19T10:48:52.962Z,1.20
2023-01-19T10:51:22.758Z,1.21
2023-01-19T10:53:58.438Z,1.22
2023-01-19T10:56:30.591Z,1.23
2023-01-19T10:59:01.567Z,1.26
2023-01-19T11:01:37.133Z,1.28
2023-01-19T11:07:16.726Z,1.39
2023-01-19T11:09:49.925Z,1.41
2023-01-19T11:12:22.798Z,1.44
2023-01-19T11:14:54.208Z,1.45
2023-01-19T11:17:27.674Z,1.47
2023-01-19T11:20:10.206Z,1.48
2023-01-19T11:22:40.782Z,1.52
2023-01-19T11:25:28.123Z,1.56
2023-01-19T11:27:58.566Z,1.61
2023-01-19T11:30:30.891Z,1.68
2023-01-19T11:33:01.673Z,1.74
2023-01-19T11:35:37.133Z,1.75
2023-01-19T11:38:19.292Z,1.76
2023-01-19T11:40:55.693Z,1.78
2023-01-19T11:43:43.344Z,1.82
2023-01-19T11:46:19.688Z,1.84
2023-01-19T11:48:57.778Z,1.88
2023-01-19T11:51:34.208Z,1.91
2023-01-19T11:54:15.606Z,1.94
2023-01-19T11:56:48.586Z,2.00
2023-01-19T11:59:19.288Z,2.07
2023-01-19T12:01:57.884Z,2.12
2023-01-19T12:04:33.421Z,2.19
2023-01-19T12:07:10.502Z,2.31
2023-01-19T12:09:42.954Z,2.42
2023-01-19T12:12:25.371Z,2.47
2023-01-19T12:15:02.533Z,2.47
2023-01-19T12:17:36.418Z,2.49
2023-01-19T12:20:16.258Z,2.57
2023-01-19T12:22:53.395Z,2.63
2023-01-19T12:25:24.610Z,2.66
2023-01-19T12:27:56.357Z,2.69
2023-01-19T12:30:30.226Z,2.75
2023-01-19T12:33:34.291Z,2.82
2023-01-19T12:36:09.802Z,2.89
2023-01-19T12:38:47.656Z,2.92
2023-01-19T12:41:32.264Z,2.99
2023-01-19T12:44:23.331Z,3.09
2023-01-19T12:47:03.370Z,3.20
2023-01-19T12:49:41.179Z,3.24
2023-01-19T12:52:30.737Z,3.36
2023-01-19T12:55:07.877Z,3.45
2023-01-19T12:57:38.317Z,3.58
2023-01-19T13:00:30.932Z,3.70
2023-01-19T13:03:02.337Z,3.94
2023-01-19T13:05:54.350Z,4.48
2023-01-19T13:08:29.605Z,5.49
2023-01-19T13:11:24.959Z,6.25
2023-01-19T13:14:35.537Z,6.99
2023-01-19T13:17:18.100Z,7.47
2023-01-19T13:19:55.694Z,8.17
2023-01-19T13:23:15.141Z,8.81
2023-01-19T13:25:52.384Z,8.91
2023-01-19T13:28:29.329Z,9.30
2023-01-19T13:31:02.973Z,9.70
2023-01-19T13:33:41.101Z,9.88
2023-01-19T13:36:22.325Z,10.31
2023-01-19T13:38:53.916Z,10.12
2023-01-19T13:41:28.696Z,10.25
2023-01-19T13:44:04.372Z,10.96
2023-01-19T13:46:35.119Z,11.47
2023-01-19T13:49:21.035Z,11.70
2023-01-19T13:52:08.859Z,11.90
2023-01-19T13:54:47.795Z,12.03
2023-01-19T13:57:27.327Z,12.51
2023-01-19T14:00:16.639Z,13.04
2023-01-19T14:03:00.164Z,12.53
2023-01-19T14:05:33.512Z,10.95
2023-01-19T14:08:06.375Z,9.87
2023-01-19T14:10:40.106Z,9.07
2023-01-19T14:13:18.274Z,8.32
2023-01-19T14:15:50.679Z,7.54
2023-01-19T14:18:30.955Z,6.84
2023-01-19T14:21:06.079Z,6.25
2023-01-19T14:23:43.351Z,5.78
2023-01-19T14:26:46.173Z,5.28
2023-01-19T14:29:32.868Z,4.81
2023-01-19T14:32:15.785Z,4.43
2023-01-19T14:34:50.486Z,4.15
2023-01-19T14:37:25.343Z,3.93
2023-01-19T14:39:59.575Z,3.75
2023-01-19T14:42:34.554Z,3.58
2023-01-19T14:45:10.006Z,3.39
2023-01-19T14:47:44.550Z,3.25
2023-01-19T14:50:26.198Z,3.11
2023-01-19T14:53:02.355Z,2.96
2023-01-19T14:55:37.468Z,2.83
2023-01-19T14:58:14.207Z,2.71
2023-01-19T15:00:46.161Z,2.60
2023-01-19T15:03:17.709Z,2.48
2023-01-19T15:06:01.895Z,2.37
2023-01-19T15:08:37.635Z,2.26
2023-01-19T15:11:13.871Z,2.14
2023-01-19T15:13:46.662Z,2.07
2023-01-19T15:16:17.102Z,1.98
2023-01-19T15:18:49.122Z,1.89
2023-01-19T15:21:23.866Z,1.82
2023-01-19T15:23:57.516Z,1.72
2023-01-19T15:26:28.758Z,1.62
2023-01-19T15:28:59.618Z,1.51
2023-01-19T15:31:30.074Z,1.35
2023-01-19T15:34:04.440Z,1.18
2023-01-19T15:36:35.167Z,1.00
2023-01-19T15:39:05.992Z,0.87
2023-01-19T15:41:37.115Z,0.79
2023-01-19T15:44:09.495Z,0.69
2023-01-19T15:46:40.188Z,0.58
2023-01-19T15:49:19.405Z,0.45
2023-01-19T15:51:52.791Z,0.36
2023-01-19T15:54:23.775Z,0.34
2023-01-19T15:56:57.308Z,0.31
2023-01-19T15:59:32.941Z,0.26
2023-01-19T16:02:07.696Z,0.17
2023-01-19T16:04:41.862Z,0.15
2023-01-19T16:07:14.229Z,0.17
2023-01-19T16:09:48.160Z,0.17
2023-01-19T16:12:23.133Z,0.10
2023-01-19T16:15:02.447Z,0.01
2023-01-19T16:17:44.903Z,-0.11
2023-01-19T16:20:19.973Z,-0.22
2023-01-19T16:23:00.663Z,-0.30
2023-01-19T16:28:27.726Z,-0.36
2023-01-19T16:32:09.557Z,-0.42
2023-01-19T16:35:30.436Z,-0.46
2023-01-19T16:38:05.447Z,-0.52
2023-01-19T16:40:36.009Z,-0.54
2023-01-19T16:43:06.662Z,-0.55
2023-01-19T16:45:59.477Z,-0.59
2023-01-19T16:48:31.850Z,-0.69
2023-01-19T16:51:07.392Z,-0.77
2023-01-19T16:53:38.047Z,-0.85
2023-01-19T16:56:15.301Z,-0.89
2023-01-19T16:58:48.399Z,-0.93
2023-01-19T17:01:57.351Z,-0.95
2023-01-19T17:04:52.561Z,-1.01
2023-01-19T17:07:51.524Z,-1.07
2023-01-19T17:10:31.552Z,-1.14
2023-01-19T17:13:26.340Z,-1.21
2023-01-19T17:16:23.374Z,-1.24
2023-01-19T17:19:17.716Z,-1.27
2023-01-19T17:22:21.219Z,-1.35
2023-01-19T17:25:26.036Z,-1.41
2023-01-19T17:28:16.843Z,-1.46
2023-01-19T17:30:57.893Z,-1.50
2023-01-19T17:34:04.240Z,-1.56
2023-01-19T17:37:18.797Z,-1.63
2023-01-19T17:40:00.694Z,-1.69
2023-01-19T17:43:04.210Z,-1.76
2023-01-19T17:46:19.704Z,-1.84
2023-01-19T17:49:14.468Z,-1.92
2023-01-19T17:52:17.894Z,-1.99
2023-01-19T17:55:01.994Z,-2.00
2023-01-19T17:58:08.173Z,-2.01
2023-01-19T18:01:25.511Z,-1.99
2023-01-19T18:04:49.152Z,-1.99
2023-01-19T18:07:46.870Z,-2.00
2023-01-19T18:10:49.032Z,-2.05
2023-01-19T18:13:31.072Z,-2.09
2023-01-19T18:16:07.247Z,-2.13
2023-01-19T18:18:44.050Z,-2.14
2023-01-19T18:21:23.609Z,-2.15
2023-01-19T18:24:35.858Z,-2.20
2023-01-19T18:27:34.948Z,-2.34
2023-01-19T18:30:29.003Z,-2.45
2023-01-19T18:33:35.029Z,-2.53
2023-01-19T18:36:44.431Z,-2.61
2023-01-19T18:39:21.987Z,-2.65
2023-01-19T18:42:01.374Z,-2.66
2023-01-19T18:44:45.583Z,-2.68
2023-01-19T18:47:22.548Z,-2.72
2023-01-19T18:50:19.429Z,-2.73
2023-01-19T18:53:13.944Z,-2.74
2023-01-19T18:56:08.947Z,-2.74
2023-01-19T18:58:47.840Z,-2.76
2023-01-19T19:01:37.151Z,-2.74
2023-01-19T19:04:41.409Z,-2.71
2023-01-19T19:07:40.327Z,-2.68
2023-01-19T19:10:40.983Z,-2.65
2023-01-19T19:16:57.627Z,-2.61
2023-01-19T19:19:37.909Z,-2.61
2023-01-19T19:22:29.371Z,-2.60
2023-01-19T19:25:25.259Z,-2.60
2023-01-19T19:28:18.306Z,-2.58
2023-01-19T19:31:04.324Z,-2.56
2023-01-19T19:34:06.513Z,-2.51
2023-01-19T19:36:50.499Z,-2.49
2023-01-19T19:39:26.586Z,-2.47
2023-01-19T19:42:32.236Z,-2.43
2023-01-19T19:45:30.568Z,-2.39
2023-01-19T19:48:25.029Z,-2.38
2023-01-19T19:51:23.970Z,-2.42
2023-01-19T19:53:57.938Z,-2.47
2023-01-19T19:56:36.869Z,-2.50
2023-01-19T19:59:41.258Z,-2.53
2023-01-19T20:02:24.884Z,-2.56
2023-01-19T20:05:27.869Z,-2.57
2023-01-19T20:08:08.808Z,-2.58
2023-01-19T20:13:49.772Z,-2.61
2023-01-19T20:16:47.287Z,-2.63
2023-01-19T20:19:44.536Z,-2.66
2023-01-19T20:22:38.836Z,-2.67
2023-01-19T20:25:14.521Z,-2.71
2023-01-19T20:28:13.837Z,-2.76
2023-01-19T20:31:15.066Z,-2.80
2023-01-19T20:33:46.569Z,-2.84
2023-01-19T20:36:18.025Z,-2.84
2023-01-19T20:38:49.402Z,-2.84
2023-01-19T20:41:20.763Z,-2.86
2023-01-19T20:43:51.722Z,-2.93
2023-01-19T20:46:22.936Z,-3.00
2023-01-19T20:48:55.212Z,-3.06
2023-01-19T20:51:27.023Z,-3.10
2023-01-19T20:53:57.581Z,-3.11
2023-01-19T20:56:28.914Z,-3.10
2023-01-19T20:59:02.236Z,-3.11
2023-01-19T21:01:34.124Z,-3.13
2023-01-19T21:04:04.956Z,-3.15
2023-01-19T21:06:37.333Z,-3.15
2023-01-19T21:09:10.406Z,-3.12
2023-01-19T21:11:42.311Z,-3.11
2023-01-19T21:14:14.766Z,-3.10
2023-01-19T21:16:48.421Z,-3.12
2023-01-19T21:19:19.147Z,-3.17
2023-01-19T21:21:50.221Z,-3.15
2023-01-19T21:24:20.871Z,-3.15
2023-01-19T21:26:53.434Z,-3.14
2023-01-19T21:29:24.161Z,-3.13
2023-01-19T21:31:55.699Z,-3.12
2023-01-19T21:34:26.982Z,-3.07
2023-01-19T21:36:58.009Z,-3.09
2023-01-19T21:39:30.015Z,-3.11
2023-01-19T21:42:02.753Z,-3.12
2023-01-19T21:44:33.495Z,-3.11
2023-01-19T21:47:09.078Z,-3.10
2023-01-19T21:49:40.460Z,-3.07
2023-01-19T21:52:13.732Z,-3.05
2023-01-19T21:54:44.360Z,-3.04
2023-01-19T21:57:15.618Z,-3.05
2023-01-19T21:59:47.986Z,-3.05
2023-01-19T22:02:37.715Z,-3.02
2023-01-19T22:05:11.901Z,-2.99
2023-01-19T22:07:42.904Z,-2.98
2023-01-19T22:10:15.439Z,-2.97
2023-01-19T22:12:46.482Z,-2.99
2023-01-19T22:15:19.547Z,-3.00
2023-01-19T22:17:50.457Z,-3.00
2023-01-19T22:20:21.639Z,-2.95
2023-01-19T22:22:52.601Z,-2.92
2023-01-19T22:25:28.701Z,-2.88
2023-01-19T22:28:01.237Z,-2.88
2023-01-19T22:30:32.656Z,-2.87
2023-01-19T22:33:03.170Z,-2.83
2023-01-19T22:35:34.190Z,-2.80
2023-01-19T22:38:04.752Z,-2.76
2023-01-19T22:40:36.729Z,-2.76
2023-01-19T22:43:07.409Z,-2.78
2023-01-19T22:45:43.289Z,-2.80
2023-01-19T22:48:15.127Z,-2.83
2023-01-19T22:50:49.442Z,-2.83
2023-01-19T22:53:19.952Z,-2.81
2023-01-19T22:55:50.929Z,-2.79
2023-01-19T22:58:21.642Z,-2.75
2023-01-19T23:00:52.767Z,-2.70
2023-01-19T23:03:24.068Z,-2.68
2023-01-19T23:05:55.487Z,-2.66
2023-01-19T23:08:26.466Z,-2.67
2023-01-19T23:10:57.880Z,-2.67
2023-01-19T23:13:30.155Z,-2.65
2023-01-19T23:16:01.312Z,-2.64
2023-01-19T23:18:36.449Z,-2.62
2023-01-19T23:21:09.853Z,-2.63
2023-01-19T23:23:40.850Z,-2.59
2023-01-19T23:26:20.820Z,-2.57
2023-01-19T23:28:57.043Z,-2.55
2023-01-19T23:31:30.557Z,-2.53
2023-01-19T23:34:03.628Z,-2.53
2023-01-19T23:36:36.589Z,-2.55
2023-01-19T23:39:13.348Z,-2.59
2023-01-19T23:41:47.388Z,-2.61
2023-01-19T23:44:18.337Z,-2.61
2023-01-19T23:46:49.019Z,-2.63
2023-01-19T23:49:19.671Z,-2.63
2023-01-19T23:51:52.787Z,-2.64
2023-01-19T23:54:25.627Z,-2.63
2023-01-19T23:56:57.165Z,-2.60
2023-01-19T23:59:28.903Z,-2.60
